EKVJ/STA METAR and TAF weather

Enter ICAO airport designator
Station Type Date Time Source
EKVJ METAR 2021/09/25 12:50 UTC NOAA

EKVJ 251250Z 30008KT 9999 FEW030 16/10 Q1014


Station Type Date Time Source
EKVJ Decoded METAR 2021/09/25 12:50 UTC NOAA

Stauning Lufthavn, Denmark (EKVJ) 56-00N 008-21E 5M
Sep 25, 2021 - 08:50 AM EDT / 2021.09.25 1250 UTC
Wind: from the WNW (300 degrees) at 9 MPH (8 KT):0
Visibility: greater than 7 mile(s):0
Sky conditions: mostly clear
Temperature: 60 F (16 C)
Dew Point: 50 F (10 C)
Relative Humidity: 67%
Pressure (altimeter): 29.94 in. Hg (1014 hPa)
ob: EKVJ 251250Z 30008KT 9999 FEW030 16/10 Q1014
cycle: 13

Station Type Date Time Source
EKVJ TAF UTC NOAA

Error!

Example: see airport list